Time;durP1;ratioP1;P1;durP2;ratioP2;P2;SDS_P1;SDS_P2;PMS_P1;PMS_P2;Temp;Humidity;BMP_temperature;BMP_pressure;BME280_temperature;BME280_humidity;BME280_pressure;Samples;Min_cycle;Max_cycle;Signal;HPM_P1;HPM_P2
2023/07/31 00:01:19;;;;;;;6.13;1.80;;;16.30;99.90;;;;;;5080866;28;21294;-68
2023/07/31 00:03:46;;;;;;;6.13;2.28;;;16.40;99.90;;;;;;5092197;28;20223;-68
2023/07/31 00:06:13;;;;;;;8.48;2.25;;;16.30;99.90;;;;;;5097857;28;20195;-68
2023/07/31 00:08:40;;;;;;;5.97;2.38;;;16.40;99.90;;;;;;5072386;28;20223;-68
2023/07/31 00:11:08;;;;;;;2.50;2.00;;;16.40;99.90;;;;;;5095502;28;20199;-68
2023/07/31 00:13:35;;;;;;;5.55;2.50;;;16.30;99.90;;;;;;5090973;28;20231;-69
2023/07/31 00:16:02;;;;;;;7.68;2.55;;;16.40;99.90;;;;;;5080947;28;20222;-69
2023/07/31 00:18:29;;;;;;;4.85;2.92;;;16.40;99.90;;;;;;5092369;28;20218;-68
2023/07/31 00:20:55;;;;;;;13.38;3.10;;;16.40;99.90;;;;;;5093422;28;20204;-68
2023/07/31 00:23:22;;;;;;;5.13;1.90;;;16.40;99.90;;;;;;5090352;28;20224;-68
2023/07/31 00:25:49;;;;;;;4.35;2.05;;;16.30;99.90;;;;;;5076965;28;20223;-68
2023/07/31 00:28:17;;;;;;;5.80;2.63;;;16.40;99.90;;;;;;5091990;28;20247;-68
2023/07/31 00:30:44;;;;;;;4.68;2.17;;;16.40;99.90;;;;;;5081569;28;20227;-69
2023/07/31 00:33:10;;;;;;;4.75;2.50;;;16.40;99.90;;;;;;5094594;28;20219;-68
2023/07/31 00:35:37;;;;;;;5.50;2.33;;;16.40;99.90;;;;;;5084707;28;20215;-68
2023/07/31 00:38:04;;;;;;;7.72;2.40;;;;;;;;;;5094323;27;20227;-68
2023/07/31 00:40:35;;;;;;;5.53;2.40;;;16.40;99.90;;;;;;5073473;28;20309;-68
2023/07/31 00:43:03;;;;;;;7.15;2.20;;;16.40;99.90;;;;;;5093236;28;20239;-68
2023/07/31 00:45:32;;;;;;;4.20;2.58;;;16.40;99.90;;;;;;5090313;28;20997;-69
2023/07/31 00:47:59;;;;;;;7.13;2.47;;;16.40;99.90;;;;;;5083648;28;20228;-68
2023/07/31 00:50:26;;;;;;;6.93;2.10;;;16.40;99.90;;;;;;5092862;28;20216;-68
2023/07/31 00:52:53;;;;;;;4.88;2.28;;;16.10;99.90;;;;;;5091543;28;20226;-68
2023/07/31 00:55:21;;;;;;;3.33;2.30;;;16.40;99.90;;;;;;5073306;28;20249;-68
2023/07/31 00:57:49;;;;;;;8.55;2.30;;;16.30;99.90;;;;;;5090232;28;20255;-68
2023/07/31 01:00:16;;;;;;;5.75;2.63;;;16.40;99.90;;;;;;5095402;28;20627;-68
2023/07/31 01:02:44;;;;;;;6.03;2.33;;;16.40;99.90;;;;;;5074442;27;20231;-69
2023/07/31 01:05:11;;;;;;;6.85;2.53;;;16.40;99.90;;;;;;5083569;28;20216;-68
2023/07/31 01:07:45;;;;;;;7.47;1.95;;;16.40;99.90;;;;;;5073133;28;20215;-68
2023/07/31 01:10:17;;;;;;;6.07;2.20;;;16.40;99.90;;;;;;5092566;28;20219;-68
2023/07/31 01:12:47;;;;;;;5.10;2.45;;;16.40;99.90;;;;;;5071438;28;20230;-68
2023/07/31 01:15:15;;;;;;;4.78;2.17;;;16.40;99.90;;;;;;5093445;28;20246;-69
2023/07/31 01:17:43;;;;;;;5.80;2.20;;;16.40;99.90;;;;;;5079751;28;20220;-68
2023/07/31 01:20:13;;;;;;;5.82;2.33;;;16.40;99.90;;;;;;5096245;28;20215;-68
2023/07/31 01:23:00;;;;;;;3.75;2.30;;;16.30;99.90;;;;;;5076283;28;20224;-70
2023/07/31 01:26:01;;;;;;;5.68;2.17;;;16.40;99.90;;;;;;5084281;28;20187;-69
2023/07/31 01:28:40;;;;;;;4.97;2.10;;;16.30;99.90;;;;;;5079627;28;20218;-68
2023/07/31 01:31:11;;;;;;;2.50;1.90;;;16.30;99.90;;;;;;5090705;28;20196;-68
2023/07/31 01:33:38;;;;;;;5.15;2.28;;;16.40;99.90;;;;;;5084777;28;20207;-69
2023/07/31 01:36:06;;;;;;;2.78;1.73;;;16.40;99.90;;;;;;5091678;28;20861;-68
2023/07/31 01:38:32;;;;;;;1.98;1.77;;;16.50;99.90;;;;;;5087357;28;20195;-69
2023/07/31 01:41:00;;;;;;;4.05;2.05;;;16.40;99.90;;;;;;5094921;28;20258;-68
2023/07/31 01:43:27;;;;;;;5.93;1.98;;;16.30;99.90;;;;;;5071314;28;20235;-69
2023/07/31 01:45:55;;;;;;;2.30;2.10;;;16.40;99.90;;;;;;5093639;28;20199;-68
2023/07/31 01:48:22;;;;;;;2.10;1.75;;;16.40;99.90;;;;;;5092868;28;20189;-68
2023/07/31 01:50:49;;;;;;;2.47;1.90;;;16.30;99.90;;;;;;5086604;28;20200;-68
2023/07/31 01:53:16;;;;;;;3.17;2.05;;;16.40;99.90;;;;;;5087174;28;20200;-68
2023/07/31 01:55:43;;;;;;;6.88;2.08;;;16.30;99.90;;;;;;5089226;28;20199;-69
2023/07/31 01:58:10;;;;;;;3.60;2.17;;;16.40;99.90;;;;;;5070141;28;20203;-68
2023/07/31 02:00:37;;;;;;;2.75;1.88;;;16.40;99.90;;;;;;5083570;28;20206;-68
2023/07/31 02:03:05;;;;;;;3.75;1.90;;;16.40;99.90;;;;;;5095151;28;20231;-68
2023/07/31 02:05:31;;;;;;;3.42;1.80;;;16.10;99.90;;;;;;5088608;28;20198;-68
2023/07/31 02:07:58;;;;;;;3.92;1.88;;;16.30;99.90;;;;;;5085332;28;22875;-68
2023/07/31 02:10:25;;;;;;;3.28;1.67;;;16.30;99.90;;;;;;5094310;28;20203;-69
2023/07/31 02:12:52;;;;;;;2.42;1.65;;;16.30;99.90;;;;;;5071171;28;20223;-68
2023/07/31 02:15:19;;;;;;;2.60;1.88;;;16.30;99.90;;;;;;5078890;28;20226;-68
2023/07/31 02:17:46;;;;;;;3.03;1.80;;;16.30;99.90;;;;;;5090338;28;20739;-68
2023/07/31 02:20:14;;;;;;;2.65;1.83;;;16.30;99.90;;;;;;5087819;28;20202;-68
2023/07/31 02:22:41;;;;;;;2.55;1.63;;;16.30;99.90;;;;;;5090308;28;20216;-68
2023/07/31 02:25:09;;;;;;;2.22;1.70;;;16.20;99.90;;;;;;5087141;28;20574;-68
2023/07/31 02:27:35;;;;;;;2.70;1.67;;;16.40;99.90;;;;;;5075808;28;20224;-69
2023/07/31 02:30:02;;;;;;;5.38;1.98;;;16.30;99.90;;;;;;5079276;28;20235;-69
2023/07/31 02:32:29;;;;;;;2.08;1.70;;;16.20;99.90;;;;;;5088903;28;20239;-68
2023/07/31 02:34:56;;;;;;;3.40;1.60;;;16.20;99.90;;;;;;5084434;28;20220;-68
2023/07/31 02:37:24;;;;;;;2.45;1.73;;;16.10;99.90;;;;;;5090816;28;20238;-69
2023/07/31 02:39:51;;;;;;;3.25;1.60;;;16.10;99.90;;;;;;5085452;28;20553;-69
2023/07/31 02:42:18;;;;;;;4.05;1.70;;;16.10;99.90;;;;;;5086722;28;20932;-68
2023/07/31 02:44:45;;;;;;;2.58;1.80;;;16.10;99.90;;;;;;5058991;28;20230;-69
2023/07/31 02:47:12;;;;;;;2.25;1.70;;;16.10;99.90;;;;;;5080060;28;20269;-68
2023/07/31 02:49:39;;;;;;;2.28;1.58;;;16.10;99.90;;;;;;5088364;28;20253;-69
2023/07/31 02:52:06;;;;;;;5.95;1.67;;;16.10;99.90;;;;;;5094064;28;20806;-68
2023/07/31 02:54:34;;;;;;;2.47;1.60;;;16.00;99.90;;;;;;5094287;28;20260;-69
2023/07/31 02:57:01;;;;;;;2.33;1.70;;;16.00;99.90;;;;;;5094775;27;20672;-69
2023/07/31 02:59:29;;;;;;;3.13;1.35;;;16.00;99.90;;;;;;5070528;28;20219;-68
2023/07/31 03:01:56;;;;;;;3.67;1.75;;;16.00;99.90;;;;;;5090380;28;20211;-68
2023/07/31 03:04:22;;;;;;;3.55;1.83;;;16.00;99.90;;;;;;5097330;28;20231;-69
2023/07/31 03:06:49;;;;;;;3.03;1.60;;;15.90;99.90;;;;;;5084237;28;20211;-68
2023/07/31 03:09:16;;;;;;;2.58;1.92;;;16.00;99.90;;;;;;5096144;28;20219;-69
2023/07/31 03:11:44;;;;;;;2.78;1.90;;;15.90;99.90;;;;;;5088501;28;20219;-69
2023/07/31 03:14:11;;;;;;;2.08;1.77;;;16.00;99.90;;;;;;5077220;28;20245;-69
2023/07/31 03:16:38;;;;;;;2.78;1.90;;;16.00;99.90;;;;;;5084487;28;20223;-69
2023/07/31 03:19:05;;;;;;;1.83;1.60;;;15.90;99.90;;;;;;5097908;27;20223;-68
2023/07/31 03:21:32;;;;;;;2.55;1.85;;;15.90;99.90;;;;;;5091806;28;20215;-69
2023/07/31 03:23:59;;;;;;;1.95;1.73;;;16.00;99.90;;;;;;5092328;28;20230;-69
2023/07/31 03:26:26;;;;;;;5.38;2.22;;;;;;;;;;5097557;28;20214;-69
2023/07/31 03:28:54;;;;;;;2.13;1.92;;;16.00;99.90;;;;;;5081253;28;20259;-69
2023/07/31 03:31:21;;;;;;;2.63;1.88;;;15.90;99.90;;;;;;5074213;28;20227;-69
2023/07/31 03:33:47;;;;;;;1.65;1.55;;;15.90;99.90;;;;;;5084667;28;20202;-69
2023/07/31 03:36:14;;;;;;;2.05;1.77;;;15.90;99.90;;;;;;5094176;28;20223;-69
2023/07/31 03:38:41;;;;;;;3.50;1.80;;;15.90;99.90;;;;;;5075600;28;21695;-69
2023/07/31 03:41:08;;;;;;;3.95;1.90;;;15.80;99.90;;;;;;5088556;28;20210;-69
2023/07/31 03:43:35;;;;;;;1.88;1.70;;;;;;;;;;5089388;28;20227;-69
2023/07/31 03:46:03;;;;;;;2.65;1.83;;;15.80;99.90;;;;;;5070842;28;20234;-69
2023/07/31 03:48:30;;;;;;;1.95;1.80;;;15.90;99.90;;;;;;5088603;28;20792;-68
2023/07/31 03:50:57;;;;;;;3.85;1.95;;;15.50;99.90;;;;;;5096085;28;20215;-70
2023/07/31 03:53:24;;;;;;;2.15;1.80;;;15.90;99.90;;;;;;5093046;28;20219;-69
2023/07/31 03:55:51;;;;;;;3.53;2.03;;;15.90;99.90;;;;;;5095524;28;20225;-69
2023/07/31 03:58:18;;;;;;;2.40;1.80;;;15.80;99.90;;;;;;5092455;28;20213;-69
2023/07/31 04:00:44;;;;;;;3.03;2.42;;;15.80;99.90;;;;;;5089580;28;20206;-69
2023/07/31 04:03:12;;;;;;;3.22;2.50;;;15.80;99.90;;;;;;5063957;28;20219;-70
2023/07/31 04:05:40;;;;;;;2.63;2.30;;;15.80;99.90;;;;;;5095837;27;20667;-69
2023/07/31 04:08:07;;;;;;;3.35;2.38;;;15.80;99.90;;;;;;5091120;28;20202;-69
2023/07/31 04:10:34;;;;;;;3.20;2.00;;;15.80;99.90;;;;;;5095608;28;20196;-69
2023/07/31 04:13:01;;;;;;;4.47;2.25;;;15.80;99.90;;;;;;5093920;28;20203;-70
2023/07/31 04:15:27;;;;;;;3.80;2.00;;;15.80;99.90;;;;;;5086574;28;20207;-69
2023/07/31 04:17:54;;;;;;;2.08;1.88;;;15.80;99.90;;;;;;5075766;28;20222;-70
2023/07/31 04:20:22;;;;;;;2.75;2.33;;;15.80;99.90;;;;;;5086198;28;20205;-69
2023/07/31 04:22:49;;;;;;;2.25;2.05;;;15.80;99.90;;;;;;5094677;28;20195;-69
2023/07/31 04:25:16;;;;;;;2.25;2.05;;;15.80;99.90;;;;;;5093086;28;20199;-69
2023/07/31 04:27:43;;;;;;;3.55;1.90;;;15.80;99.90;;;;;;5095689;28;20309;-70
2023/07/31 04:30:10;;;;;;;2.13;1.92;;;15.80;99.90;;;;;;5084558;28;20230;-69
2023/07/31 04:32:37;;;;;;;1.80;1.65;;;15.80;99.90;;;;;;5078281;28;20230;-69
2023/07/31 04:35:04;;;;;;;3.35;2.00;;;15.80;99.90;;;;;;5086171;28;20196;-70
2023/07/31 04:37:33;;;;;;;1.67;1.58;;;15.80;99.90;;;;;;5097337;28;20200;-69
2023/07/31 04:39:59;;;;;;;3.60;1.80;;;15.60;99.90;;;;;;5094473;28;20196;-71
2023/07/31 04:42:26;;;;;;;1.75;1.63;;;15.80;99.90;;;;;;5096041;28;20818;-69
2023/07/31 04:44:53;;;;;;;4.38;1.90;;;15.90;99.90;;;;;;5095913;28;20228;-69
2023/07/31 04:47:20;;;;;;;2.40;1.52;;;15.80;99.90;;;;;;5066867;28;20704;-69
2023/07/31 04:49:47;;;;;;;1.52;1.42;;;15.80;99.90;;;;;;5095970;28;20192;-69
2023/07/31 04:52:14;;;;;;;1.40;1.30;;;15.90;99.90;;;;;;5083257;28;20203;-69
2023/07/31 04:54:42;;;;;;;3.30;2.95;;;15.80;99.90;;;;;;5094576;28;20677;-69
2023/07/31 04:57:09;;;;;;;1.45;1.35;;;15.80;99.90;;;;;;5092281;28;20210;-69
2023/07/31 04:59:36;;;;;;;1.20;1.10;;;15.90;99.90;;;;;;5096298;28;20681;-69
2023/07/31 05:02:03;;;;;;;1.25;1.15;;;15.90;99.90;;;;;;5073558;28;20193;-69
2023/07/31 05:04:30;;;;;;;1.75;1.20;;;15.90;99.90;;;;;;5091644;28;20223;-69
2023/07/31 05:06:57;;;;;;;2.20;1.20;;;15.90;99.90;;;;;;5092276;28;20300;-70
2023/07/31 05:09:24;;;;;;;1.63;1.20;;;16.00;99.90;;;;;;5082430;28;20293;-69
2023/07/31 05:11:52;;;;;;;3.08;1.13;;;15.90;99.90;;;;;;5093562;28;20973;-70
2023/07/31 05:14:20;;;;;;;1.63;1.30;;;15.80;99.90;;;;;;5086825;28;20271;-70
2023/07/31 05:16:46;;;;;;;1.20;1.10;;;15.90;99.90;;;;;;5090249;28;20202;-69
2023/07/31 05:19:14;;;;;;;1.90;1.05;;;16.00;99.90;;;;;;5073068;28;20203;-69
2023/07/31 05:21:41;;;;;;;0.85;0.85;;;15.90;99.90;;;;;;5094306;28;21157;-69
2023/07/31 05:24:07;;;;;;;1.08;0.98;;;15.90;99.90;;;;;;5089699;28;20223;-70
2023/07/31 05:26:34;;;;;;;1.30;1.08;;;15.90;99.90;;;;;;5095670;28;20200;-69
2023/07/31 05:29:02;;;;;;;1.00;1.00;;;15.90;99.90;;;;;;5093062;28;20242;-69
2023/07/31 05:31:29;;;;;;;0.90;0.90;;;15.90;99.90;;;;;;5078352;28;20204;-70
2023/07/31 05:33:56;;;;;;;1.20;1.00;;;16.00;99.90;;;;;;5085679;28;20595;-69
2023/07/31 05:36:23;;;;;;;0.80;0.80;;;16.00;99.90;;;;;;5079138;27;20295;-69
2023/07/31 05:38:50;;;;;;;1.10;1.00;;;16.00;99.90;;;;;;5089416;28;20195;-69
2023/07/31 05:41:18;;;;;;;1.58;1.10;;;16.00;99.90;;;;;;5092130;28;20195;-69
2023/07/31 05:43:45;;;;;;;1.77;0.75;;;16.00;99.90;;;;;;5093233;28;20227;-70
2023/07/31 05:46:13;;;;;;;0.90;0.90;;;16.00;99.90;;;;;;5084241;28;20706;-69
2023/07/31 05:48:41;;;;;;;0.95;0.93;;;;;;;;;;5088395;28;20981;-69
2023/07/31 05:51:08;;;;;;;0.90;0.90;;;16.10;99.90;;;;;;5072715;28;20207;-69
2023/07/31 05:53:36;;;;;;;1.15;1.05;;;16.00;99.90;;;;;;5092601;28;20287;-69
2023/07/31 05:56:02;;;;;;;0.85;0.85;;;16.20;99.90;;;;;;5088747;28;20203;-69
2023/07/31 05:58:29;;;;;;;0.77;0.77;;;16.10;99.90;;;;;;5092323;28;20200;-69
2023/07/31 06:00:56;;;;;;;1.05;0.80;;;15.80;99.90;;;;;;5080670;28;20207;-70
2023/07/31 06:03:24;;;;;;;0.82;0.80;;;16.20;99.90;;;;;;5087250;28;20204;-69
2023/07/31 06:05:51;;;;;;;0.85;0.85;;;16.20;99.90;;;;;;5071057;28;20944;-70
2023/07/31 06:08:18;;;;;;;0.70;0.70;;;16.20;99.90;;;;;;5092147;28;20207;-69
2023/07/31 06:10:44;;;;;;;1.88;0.65;;;16.10;99.90;;;;;;5092856;28;21215;-69
2023/07/31 06:13:11;;;;;;;0.95;0.80;;;16.20;99.90;;;;;;5092152;28;20199;-69
2023/07/31 06:15:38;;;;;;;0.60;0.60;;;16.20;99.90;;;;;;5092251;28;20224;-70
2023/07/31 06:18:07;;;;;;;0.75;0.65;;;16.10;99.90;;;;;;5084758;28;20680;-69
2023/07/31 06:20:40;;;;;;;1.00;0.98;;;16.30;99.90;;;;;;5089075;28;20672;-70
2023/07/31 06:23:07;;;;;;;0.70;0.70;;;16.10;99.90;;;;;;5080298;28;20191;-69
2023/07/31 06:25:34;;;;;;;0.52;0.52;;;16.20;99.90;;;;;;5093974;28;20234;-70
2023/07/31 06:28:00;;;;;;;0.75;0.60;;;16.20;99.90;;;;;;5091579;28;20992;-69
2023/07/31 06:30:27;;;;;;;1.70;0.80;;;16.20;99.90;;;;;;5091692;28;20219;-69
2023/07/31 06:32:54;;;;;;;1.20;0.70;;;16.30;99.90;;;;;;5083088;28;20203;-70
2023/07/31 06:35:21;;;;;;;0.52;0.52;;;16.20;99.90;;;;;;5094800;28;20369;-69
2023/07/31 06:37:50;;;;;;;0.60;0.60;;;16.20;99.90;;;;;;5066580;28;20222;-69
2023/07/31 06:40:17;;;;;;;0.70;0.70;;;16.30;99.90;;;;;;5090863;28;20215;-69
2023/07/31 06:42:44;;;;;;;1.85;0.70;;;16.30;99.90;;;;;;5088519;28;20260;-70
2023/07/31 06:45:12;;;;;;;0.70;0.70;;;16.30;99.90;;;;;;5093045;28;20227;-69
2023/07/31 06:47:38;;;;;;;0.93;0.50;;;16.30;99.90;;;;;;5090831;28;20195;-69
2023/07/31 06:50:06;;;;;;;0.75;0.75;;;16.30;99.90;;;;;;5085159;28;20203;-69
2023/07/31 06:52:33;;;;;;;0.70;0.70;;;16.30;99.90;;;;;;5086020;28;20208;-70
2023/07/31 06:55:19;;;;;;;0.57;0.57;;;16.40;99.90;;;;;;5076890;28;20291;-69
2023/07/31 06:57:46;;;;;;;1.17;0.70;;;16.40;99.90;;;;;;5090316;28;20208;-70
2023/07/31 07:00:13;;;;;;;1.00;0.65;;;16.40;99.90;;;;;;5089308;28;20200;-69
2023/07/31 07:02:40;;;;;;;0.60;0.60;;;16.40;99.90;;;;;;5089874;28;20227;-70
2023/07/31 07:05:08;;;;;;;0.70;0.70;;;16.40;99.90;;;;;;5083855;28;20238;-70
2023/07/31 07:07:35;;;;;;;0.50;0.50;;;16.40;99.90;;;;;;5089974;28;20200;-69
2023/07/31 07:10:04;;;;;;;0.77;0.70;;;16.40;99.90;;;;;;5070346;28;20350;-70
2023/07/31 07:12:33;;;;;;;0.88;0.70;;;16.40;99.90;;;;;;5092904;28;20712;-69
2023/07/31 07:15:00;;;;;;;0.85;0.73;;;16.40;99.90;;;;;;5089060;28;20216;-69
2023/07/31 07:17:27;;;;;;;0.68;0.68;;;16.40;99.90;;;;;;5086206;28;20270;-70
2023/07/31 07:19:55;;;;;;;2.00;0.60;;;16.40;99.90;;;;;;5092269;28;20199;-69
2023/07/31 07:22:21;;;;;;;0.60;0.60;;;16.50;99.90;;;;;;5082244;28;20218;-69
2023/07/31 07:24:48;;;;;;;0.82;0.68;;;16.50;99.90;;;;;;5071894;28;20236;-69
2023/07/31 07:27:16;;;;;;;0.50;0.50;;;16.50;99.90;;;;;;5092593;28;20208;-69
2023/07/31 07:29:43;;;;;;;0.30;0.30;;;16.50;99.90;;;;;;5092118;28;21149;-69
2023/07/31 07:32:11;;;;;;;0.73;0.55;;;16.50;99.90;;;;;;5090522;28;20211;-69
2023/07/31 07:34:38;;;;;;;0.73;0.50;;;16.40;99.90;;;;;;5091447;28;20199;-69
2023/07/31 07:37:06;;;;;;;0.40;0.40;;;16.40;99.90;;;;;;5081844;28;20221;-70
2023/07/31 07:39:33;;;;;;;0.50;0.50;;;16.40;99.90;;;;;;5092747;28;20413;-70
2023/07/31 07:42:00;;;;;;;2.22;0.57;;;16.40;99.90;;;;;;5077157;28;20223;-70
2023/07/31 07:44:28;;;;;;;0.98;0.70;;;16.40;99.90;;;;;;5096393;28;20246;-69
2023/07/31 07:46:55;;;;;;;1.30;0.60;;;16.30;99.90;;;;;;5091247;28;20210;-70
2023/07/31 07:49:22;;;;;;;0.52;0.40;;;16.30;99.90;;;;;;5095266;28;20635;-70
2023/07/31 07:51:49;;;;;;;0.65;0.52;;;16.30;99.90;;;;;;5096031;28;20192;-70
2023/07/31 07:54:16;;;;;;;1.20;0.40;;;16.30;99.90;;;;;;5089921;28;20298;-70
2023/07/31 07:56:43;;;;;;;0.60;0.50;;;16.30;99.90;;;;;;5073414;28;20204;-70
2023/07/31 07:59:10;;;;;;;0.60;0.60;;;16.40;99.90;;;;;;5092757;28;20198;-70
2023/07/31 08:01:38;;;;;;;0.57;0.57;;;16.30;99.90;;;;;;5094284;28;20187;-70
2023/07/31 08:04:05;;;;;;;0.80;0.80;;;16.30;99.90;;;;;;5095216;28;20210;-70
2023/07/31 08:06:32;;;;;;;0.68;0.60;;;16.20;99.90;;;;;;5094180;28;20199;-70
2023/07/31 08:08:59;;;;;;;0.93;0.75;;;16.30;99.90;;;;;;5090378;27;20204;-69
2023/07/31 08:11:26;;;;;;;1.42;0.75;;;16.20;99.90;;;;;;5084875;28;20200;-70
2023/07/31 08:13:53;;;;;;;1.75;0.50;;;15.30;99.90;;;;;;5079895;28;20211;-70
2023/07/31 08:16:20;;;;;;;0.65;0.50;;;16.30;99.90;;;;;;5096956;28;20210;-70
2023/07/31 08:18:48;;;;;;;0.88;0.73;;;16.40;99.90;;;;;;5084980;28;20200;-70
2023/07/31 08:21:15;;;;;;;2.00;0.60;;;16.40;99.90;;;;;;5097692;28;20210;-69
2023/07/31 08:23:42;;;;;;;0.57;0.55;;;16.50;99.90;;;;;;5087350;28;20196;-69
2023/07/31 08:26:09;;;;;;;0.65;0.50;;;16.50;99.90;;;;;;5098530;28;20223;-70
2023/07/31 08:28:36;;;;;;;0.65;0.65;;;16.60;99.90;;;;;;5071632;28;20227;-72
2023/07/31 08:31:03;;;;;;;0.95;0.85;;;16.50;99.90;;;;;;5094817;28;20905;-70
2023/07/31 08:33:30;;;;;;;3.72;2.10;;;16.60;99.90;;;;;;5091141;28;20203;-70
2023/07/31 08:35:59;;;;;;;5.15;2.63;;;16.70;99.90;;;;;;5087453;28;20217;-70
2023/07/31 08:38:29;;;;;;;5.28;2.58;;;17.10;99.90;;;;;;5093417;27;20660;-70
2023/07/31 08:40:57;;;;;;;6.35;3.28;;;16.80;99.90;;;;;;5091646;28;20214;-70
2023/07/31 08:43:26;;;;;;;8.18;4.15;;;;;;;;;;5067477;28;20238;-70
2023/07/31 08:45:54;;;;;;;10.52;4.72;;;16.90;99.90;;;;;;5093698;28;20239;-70
2023/07/31 08:48:23;;;;;;;7.63;4.47;;;17.00;99.90;;;;;;5088902;28;20215;-70
2023/07/31 08:50:50;;;;;;;11.25;4.75;;;16.90;99.90;;;;;;5083297;28;20238;-70
2023/07/31 08:53:18;;;;;;;10.80;4.30;;;17.00;99.90;;;;;;5090413;28;21110;-70
2023/07/31 08:55:46;;;;;;;9.35;5.22;;;17.00;99.90;;;;;;5084734;28;20241;-70
2023/07/31 08:58:14;;;;;;;13.38;5.00;;;18.00;99.90;;;;;;5073216;28;20794;-70
2023/07/31 09:00:43;;;;;;;12.55;4.97;;;17.00;99.90;;;;;;5091430;27;20222;-70
2023/07/31 09:03:14;;;;;;;13.70;5.95;;;17.00;99.90;;;;;;5089840;28;20223;-70
2023/07/31 09:05:43;;;;;;;12.82;5.78;;;16.90;99.90;;;;;;5095780;28;20234;-69
2023/07/31 09:08:10;;;;;;;12.27;5.38;;;16.90;99.90;;;;;;5091336;28;20195;-70
2023/07/31 09:10:42;;;;;;;12.52;5.45;;;16.80;99.90;;;;;;5086140;28;20204;-70
2023/07/31 09:13:09;;;;;;;15.23;6.22;;;16.60;99.90;;;;;;5078416;28;20582;-71
2023/07/31 09:15:36;;;;;;;10.48;6.00;;;17.00;99.90;;;;;;5080248;28;20205;-70
2023/07/31 09:18:05;;;;;;;12.18;6.10;;;16.90;99.90;;;;;;5093375;28;20246;-70
2023/07/31 09:20:32;;;;;;;11.05;5.97;;;17.00;99.90;;;;;;5084025;28;21906;-70
2023/07/31 09:23:08;;;;;;;11.82;5.97;;;17.00;99.90;;;;;;5091163;28;20238;-70
2023/07/31 09:25:35;;;;;;;11.85;5.30;;;17.00;99.90;;;;;;5090835;28;20234;-70
2023/07/31 09:28:05;;;;;;;8.48;5.50;;;17.00;99.90;;;;;;5081712;28;20215;-70
2023/07/31 09:30:44;;;;;;;15.13;5.88;;;17.00;99.90;;;;;;5085729;28;20245;-70
2023/07/31 09:33:11;;;;;;;11.90;4.68;;;16.90;99.90;;;;;;5085336;28;20220;-70
2023/07/31 09:35:40;;;;;;;18.58;4.47;;;16.90;99.90;;;;;;5084235;28;20219;-70
2023/07/31 09:38:08;;;;;;;6.97;4.45;;;16.90;99.90;;;;;;5083548;27;20220;-70
2023/07/31 09:40:37;;;;;;;5.82;4.22;;;17.00;99.90;;;;;;5092288;28;20300;-70
2023/07/31 09:43:06;;;;;;;8.10;4.30;;;17.00;99.90;;;;;;5081262;28;20265;-73
2023/07/31 09:45:35;;;;;;;10.52;4.13;;;17.10;99.90;;;;;;5084201;28;20723;-70
2023/07/31 09:48:03;;;;;;;6.50;4.30;;;17.20;99.90;;;;;;5088316;28;20215;-69
2023/07/31 09:50:30;;;;;;;7.53;4.30;;;17.20;99.90;;;;;;5090104;28;20227;-70
2023/07/31 09:52:57;;;;;;;5.70;4.68;;;17.20;99.90;;;;;;5084501;28;20226;-70
2023/07/31 09:55:25;;;;;;;8.35;5.20;;;17.30;99.90;;;;;;5081468;28;20231;-70
2023/07/31 09:57:52;;;;;;;6.57;4.80;;;17.30;99.90;;;;;;5088226;28;20226;-70
2023/07/31 10:00:24;;;;;;;8.20;5.03;;;17.40;99.90;;;;;;5062771;28;20234;-70
2023/07/31 10:02:53;;;;;;;8.52;4.45;;;17.40;99.90;;;;;;5085485;28;20585;-70
2023/07/31 10:05:21;;;;;;;7.28;4.38;;;17.40;99.90;;;;;;5085804;28;20314;-70
2023/07/31 10:07:55;;;;;;;6.43;4.10;;;17.40;99.90;;;;;;5087077;28;20199;-69
2023/07/31 10:10:23;;;;;;;8.10;4.70;;;17.80;99.90;;;;;;5092011;28;20237;-70
2023/07/31 10:12:50;;;;;;;7.75;4.18;;;17.40;99.90;;;;;;5092716;28;20211;-70
2023/07/31 10:15:18;;;;;;;6.50;3.47;;;17.30;99.90;;;;;;5070192;28;20200;-70
2023/07/31 10:17:48;;;;;;;5.15;3.63;;;17.30;99.90;;;;;;5084298;28;20223;-70
2023/07/31 10:20:16;;;;;;;6.63;3.40;;;17.40;99.90;;;;;;5090845;28;20265;-70
2023/07/31 10:22:43;;;;;;;9.13;3.30;;;17.30;99.90;;;;;;5092310;28;20719;-70
2023/07/31 10:25:10;;;;;;;8.13;3.17;;;17.30;99.90;;;;;;5091428;28;20233;-70
2023/07/31 10:27:39;;;;;;;6.88;2.80;;;17.30;99.90;;;;;;5094195;28;20950;-70
2023/07/31 10:30:10;;;;;;;3.28;2.50;;;17.40;99.90;;;;;;5066803;28;20238;-70
2023/07/31 10:32:39;;;;;;;5.93;2.53;;;17.40;99.90;;;;;;5088782;28;20220;-69
2023/07/31 10:35:08;;;;;;;6.18;2.83;;;17.40;99.90;;;;;;5089010;28;20234;-70
2023/07/31 10:37:38;;;;;;;2.90;2.10;;;17.40;99.90;;;;;;5090219;28;20597;-70
2023/07/31 10:40:07;;;;;;;4.07;2.40;;;17.40;99.90;;;;;;5080134;28;21016;-71
2023/07/31 10:42:36;;;;;;;3.10;2.30;;;17.40;99.90;;;;;;5092189;28;20206;-70
2023/07/31 10:45:05;;;;;;;4.97;2.30;;;17.40;99.90;;;;;;5069577;28;20680;-70
2023/07/31 10:47:32;;;;;;;3.13;2.10;;;17.50;99.90;;;;;;5085720;28;20202;-70
2023/07/31 10:50:19;;;;;;;3.83;2.20;;;17.60;99.90;;;;;;5091382;28;20211;-73
2023/07/31 10:52:49;;;;;;;4.20;2.30;;;17.50;99.90;;;;;;5095204;28;20199;-70
2023/07/31 10:55:23;;;;;;;2.50;2.00;;;17.50;99.90;;;;;;5087086;28;20203;-70
2023/07/31 10:57:50;;;;;;;2.70;2.03;;;17.60;99.90;;;;;;5094041;28;20656;-70
2023/07/31 11:00:22;;;;;;;3.38;2.30;;;17.70;99.90;;;;;;5071488;28;20212;-70
2023/07/31 11:02:59;;;;;;;2.55;2.20;;;17.60;99.90;;;;;;5092573;28;20203;-70
2023/07/31 11:05:50;;;;;;;1.90;1.70;;;17.70;99.90;;;;;;5090724;28;20238;-70
2023/07/31 11:08:20;;;;;;;4.18;2.10;;;17.70;99.90;;;;;;5083203;28;20203;-70
2023/07/31 11:10:48;;;;;;;3.17;2.10;;;17.80;99.90;;;;;;5085819;28;20207;-70
2023/07/31 11:13:15;;;;;;;2.60;1.90;;;17.80;99.90;;;;;;5092225;28;20192;-70
2023/07/31 11:15:42;;;;;;;3.05;1.92;;;17.80;99.90;;;;;;5096251;28;20199;-70
2023/07/31 11:18:10;;;;;;;2.65;1.60;;;17.80;99.90;;;;;;5076272;28;20207;-70
2023/07/31 11:20:38;;;;;;;2.83;2.13;;;17.80;99.90;;;;;;5093970;28;20196;-70
2023/07/31 11:23:09;;;;;;;1.92;1.50;;;17.90;99.90;;;;;;5095069;28;20207;-70
2023/07/31 11:25:37;;;;;;;2.55;1.60;;;17.90;99.90;;;;;;5089455;28;20219;-70
2023/07/31 11:28:05;;;;;;;1.75;1.40;;;17.90;99.90;;;;;;5095639;28;20302;-70
2023/07/31 11:30:32;;;;;;;2.25;1.33;;;17.90;99.90;;;;;;5095780;28;20206;-70
2023/07/31 11:33:00;;;;;;;3.50;1.40;;;18.00;99.90;;;;;;5076813;28;20195;-70
2023/07/31 11:35:27;;;;;;;2.03;1.48;;;17.90;99.90;;;;;;5096111;28;20209;-70
2023/07/31 11:37:54;;;;;;;1.70;1.10;;;18.00;99.90;;;;;;5095325;27;21591;-70
2023/07/31 11:40:22;;;;;;;1.10;1.00;;;18.00;99.90;;;;;;5064319;27;20226;-70
2023/07/31 11:42:49;;;;;;;1.25;1.15;;;18.10;99.90;;;;;;5078315;28;20306;-70
2023/07/31 11:45:16;;;;;;;1.77;1.10;;;18.10;99.90;;;;;;5090485;28;20195;-70
2023/07/31 11:47:42;;;;;;;1.08;0.95;;;18.10;99.90;;;;;;5074739;28;20208;-70
2023/07/31 11:50:12;;;;;;;1.10;1.00;;;18.10;99.90;;;;;;5097009;28;20195;-70
2023/07/31 11:52:43;;;;;;;1.42;0.95;;;18.20;99.90;;;;;;5093647;28;20245;-70
2023/07/31 11:55:10;;;;;;;0.95;0.95;;;18.20;99.90;;;;;;5091449;28;20207;-70
2023/07/31 11:57:41;;;;;;;0.77;0.77;;;18.30;99.90;;;;;;5091278;28;20585;-71
2023/07/31 12:00:10;;;;;;;1.00;0.90;;;18.20;99.90;;;;;;5097393;28;20284;-70
2023/07/31 12:02:39;;;;;;;0.98;0.90;;;18.30;99.90;;;;;;5075088;28;20196;-70
2023/07/31 12:05:07;;;;;;;0.60;0.60;;;18.20;99.90;;;;;;5091456;28;20204;-70
2023/07/31 12:07:49;;;;;;;0.60;0.60;;;18.20;99.90;;;;;;5092154;28;20231;-71
2023/07/31 12:10:26;;;;;;;0.75;0.75;;;18.20;99.90;;;;;;5094784;28;20207;-70
2023/07/31 12:13:06;;;;;;;0.85;0.85;;;18.30;99.90;;;;;;5089036;28;20215;-70
2023/07/31 12:15:40;;;;;;;0.82;0.80;;;18.30;99.90;;;;;;5094948;28;20720;-70
2023/07/31 12:18:09;;;;;;;1.85;0.60;;;18.30;99.90;;;;;;5091778;28;20221;-70
2023/07/31 12:20:36;;;;;;;0.65;0.65;;;18.20;99.90;;;;;;5073290;28;20223;-70
2023/07/31 12:23:03;;;;;;;1.05;0.80;;;18.30;99.90;;;;;;5096098;28;20226;-70
2023/07/31 12:25:32;;;;;;;3.60;0.75;;;17.90;99.90;;;;;;5089440;28;20203;-70
2023/07/31 12:27:59;;;;;;;0.73;0.73;;;18.40;99.90;;;;;;5090079;28;20249;-70
2023/07/31 12:30:30;;;;;;;2.28;0.80;;;18.40;99.90;;;;;;5093741;28;20213;-71
2023/07/31 12:32:57;;;;;;;0.50;0.50;;;18.50;99.90;;;;;;5091208;28;21049;-70
2023/07/31 12:35:24;;;;;;;0.65;0.65;;;18.40;99.90;;;;;;5075569;28;20593;-70
2023/07/31 12:37:51;;;;;;;1.80;0.68;;;15.60;99.90;;;;;;5088224;28;20817;-70
2023/07/31 12:40:18;;;;;;;0.88;0.88;;;18.50;99.90;;;;;;5093521;28;20218;-71
2023/07/31 12:42:45;;;;;;;0.93;0.90;;;18.40;99.90;;;;;;5084336;28;20191;-70
2023/07/31 12:45:11;;;;;;;1.08;1.00;;;18.40;99.90;;;;;;5097872;28;20198;-70
2023/07/31 12:47:40;;;;;;;1.10;0.80;;;18.40;99.90;;;;;;5091551;28;20231;-71
2023/07/31 12:50:08;;;;;;;3.20;1.10;;;18.40;99.90;;;;;;5095390;28;20191;-70
2023/07/31 12:52:35;;;;;;;2.25;0.90;;;18.40;99.90;;;;;;5076128;28;20207;-70